createdAt,value
2018-05-06T03:00:59.625Z,997.20
2018-05-06T03:02:01.200Z,997.25
2018-05-06T03:02:59.111Z,997.26
2018-05-06T03:03:59.164Z,997.25
2018-05-06T03:04:59.281Z,997.24
2018-05-06T03:05:59.442Z,997.21
2018-05-06T03:06:59.645Z,997.22
2018-05-06T03:07:59.805Z,997.25
2018-05-06T03:08:59.954Z,997.24
2018-05-06T03:10:00.159Z,997.25
2018-05-06T03:11:00.299Z,997.21
2018-05-06T03:12:00.408Z,997.22
2018-05-06T03:13:00.583Z,997.22
2018-05-06T03:14:00.819Z,997.27
2018-05-06T03:15:00.933Z,997.22
2018-05-06T03:16:01.061Z,997.22
2018-05-06T03:17:01.196Z,997.22
2018-05-06T03:18:01.406Z,997.21
2018-05-06T03:19:01.611Z,997.23
2018-05-06T03:20:01.684Z,997.19
2018-05-06T03:21:01.890Z,997.22
2018-05-06T03:22:02.031Z,997.25
2018-05-06T03:23:02.227Z,997.22
2018-05-06T03:24:02.357Z,997.28
2018-05-06T03:25:02.573Z,997.27
2018-05-06T03:26:02.723Z,997.25
2018-05-06T03:27:02.854Z,997.27
2018-05-06T03:28:03.108Z,997.29
2018-05-06T03:29:03.270Z,997.27
2018-05-06T03:30:03.382Z,997.30
2018-05-06T03:31:03.582Z,997.32
2018-05-06T03:32:03.707Z,997.33
2018-05-06T03:33:03.914Z,997.34
2018-05-06T03:34:04.051Z,997.29
2018-05-06T03:35:04.191Z,997.30
2018-05-06T03:36:04.412Z,997.33
2018-05-06T03:37:04.537Z,997.34
2018-05-06T03:38:04.698Z,997.33
2018-05-06T03:39:04.877Z,997.33
2018-05-06T03:40:04.976Z,997.31
2018-05-06T03:41:05.177Z,997.28
2018-05-06T03:42:05.325Z,997.28
2018-05-06T03:43:05.531Z,997.28
2018-05-06T03:44:05.671Z,997.23
2018-05-06T03:45:05.852Z,997.24
2018-05-06T03:46:06.057Z,997.23
2018-05-06T03:47:06.118Z,997.23
2018-05-06T03:48:06.312Z,997.26
2018-05-06T03:49:06.439Z,997.24
2018-05-06T03:50:06.649Z,997.22
2018-05-06T03:51:06.777Z,997.20
2018-05-06T03:52:06.970Z,997.22
2018-05-06T03:53:07.070Z,997.24
2018-05-06T03:54:07.265Z,997.24
2018-05-06T03:55:07.402Z,997.26
2018-05-06T03:56:07.539Z,997.27
2018-05-06T03:57:07.706Z,997.28
2018-05-06T03:58:07.909Z,997.30
2018-05-06T03:59:08.009Z,997.30
2018-05-06T04:00:08.495Z,997.29
2018-05-06T04:01:08.381Z,997.30
2018-05-06T04:02:08.526Z,997.30
2018-05-06T04:03:08.676Z,997.29
2018-05-06T04:04:08.862Z,997.30
2018-05-06T04:05:09.029Z,997.30
2018-05-06T04:06:09.193Z,997.26
2018-05-06T04:07:09.291Z,997.29
2018-05-06T04:08:09.523Z,997.29
2018-05-06T04:09:09.696Z,997.34
2018-05-06T04:10:09.782Z,997.35
2018-05-06T04:11:09.948Z,997.37
2018-05-06T04:12:10.141Z,997.36
2018-05-06T04:13:10.261Z,997.43
2018-05-06T04:14:10.413Z,997.43
2018-05-06T04:15:10.564Z,997.43
2018-05-06T04:16:10.790Z,997.40
2018-05-06T04:17:10.926Z,997.43
2018-05-06T04:18:11.076Z,997.42
2018-05-06T04:19:11.281Z,997.43
2018-05-06T04:20:11.398Z,997.46
2018-05-06T04:21:11.596Z,997.43
2018-05-06T04:22:11.716Z,997.46
2018-05-06T04:23:11.914Z,997.45
2018-05-06T04:24:12.062Z,997.49
2018-05-06T04:25:12.182Z,997.52
2018-05-06T04:26:12.417Z,997.48
2018-05-06T04:27:12.474Z,997.47
2018-05-06T04:28:12.705Z,997.50
2018-05-06T04:29:12.826Z,997.49
2018-05-06T04:30:13.095Z,997.55
2018-05-06T04:31:13.149Z,997.54
2018-05-06T04:32:13.371Z,997.52
2018-05-06T04:33:13.487Z,997.53
2018-05-06T04:34:13.688Z,997.54
2018-05-06T04:35:13.824Z,997.54
2018-05-06T04:36:13.998Z,997.56
2018-05-06T04:37:14.119Z,997.49
2018-05-06T04:38:14.279Z,997.57
2018-05-06T04:39:14.476Z,997.56
2018-05-06T04:40:14.615Z,997.54
2018-05-06T04:41:14.812Z,997.52
2018-05-06T04:42:14.928Z,997.48
2018-05-06T04:43:15.129Z,997.55
2018-05-06T04:44:15.287Z,997.51
2018-05-06T04:45:15.487Z,997.52
2018-05-06T04:46:15.581Z,997.54
2018-05-06T04:47:15.800Z,997.51
2018-05-06T04:48:15.899Z,997.52
2018-05-06T04:49:16.059Z,997.55
2018-05-06T04:50:16.257Z,997.52
2018-05-06T04:51:16.399Z,997.53
2018-05-06T04:52:16.579Z,997.55
2018-05-06T04:53:16.731Z,997.51
2018-05-06T04:54:16.913Z,997.51
2018-05-06T04:55:17.059Z,997.51
2018-05-06T04:56:17.183Z,997.48
2018-05-06T04:57:17.456Z,997.51
2018-05-06T04:58:17.490Z,997.46
2018-05-06T04:59:17.678Z,997.50
2018-05-06T05:00:17.748Z,997.45
2018-05-06T05:01:17.955Z,997.52
2018-05-06T05:02:18.163Z,997.50
2018-05-06T05:03:18.260Z,997.47
2018-05-06T05:04:18.491Z,997.49
2018-05-06T05:05:18.655Z,997.43
2018-05-06T05:06:18.808Z,997.47
2018-05-06T05:07:18.975Z,997.45
2018-05-06T05:08:19.150Z,997.46
2018-05-06T05:09:19.336Z,997.44
2018-05-06T05:10:19.530Z,997.42
2018-05-06T05:11:19.619Z,997.46
2018-05-06T05:12:19.739Z,997.45
2018-05-06T05:13:19.952Z,997.45
2018-05-06T05:14:20.094Z,997.46
2018-05-06T05:15:20.267Z,997.47
2018-05-06T05:16:20.429Z,997.45
2018-05-06T05:17:20.565Z,997.52
2018-05-06T05:18:20.806Z,997.51
2018-05-06T05:19:20.911Z,997.53
2018-05-06T05:20:21.091Z,997.54
2018-05-06T05:21:21.162Z,997.55
2018-05-06T05:22:21.419Z,997.55
2018-05-06T05:23:21.583Z,997.51
2018-05-06T05:24:21.741Z,997.56
2018-05-06T05:25:21.829Z,997.53
2018-05-06T05:26:22.060Z,997.47
2018-05-06T05:27:22.179Z,997.46
2018-05-06T05:28:22.387Z,997.46
2018-05-06T05:29:22.597Z,997.42
2018-05-06T05:30:22.639Z,997.42
2018-05-06T05:31:22.843Z,997.47
2018-05-06T05:32:23.040Z,997.44
2018-05-06T05:33:23.081Z,997.45
2018-05-06T05:34:23.351Z,997.46
2018-05-06T05:35:23.414Z,997.44
2018-05-06T05:36:23.636Z,997.49
2018-05-06T05:37:23.806Z,997.46
2018-05-06T05:38:23.947Z,997.47
2018-05-06T05:39:24.148Z,997.47
2018-05-06T05:40:24.306Z,997.55
2018-05-06T05:41:24.463Z,997.53
2018-05-06T05:42:24.583Z,997.55
2018-05-06T05:43:24.809Z,997.60
2018-05-06T05:44:24.973Z,997.56
2018-05-06T05:45:25.099Z,997.59
2018-05-06T05:46:25.289Z,997.66
2018-05-06T05:47:25.418Z,997.61
2018-05-06T05:48:25.581Z,997.59
2018-05-06T05:49:25.768Z,997.59
2018-05-06T05:50:25.844Z,997.64
2018-05-06T05:51:26.044Z,997.58
2018-05-06T05:52:26.183Z,997.60
2018-05-06T05:53:26.405Z,997.60
2018-05-06T05:54:26.494Z,997.66
2018-05-06T05:55:26.710Z,997.61
2018-05-06T05:56:26.862Z,997.62
2018-05-06T05:57:26.983Z,997.62
2018-05-06T05:58:27.214Z,997.64
2018-05-06T05:59:27.393Z,997.62
2018-05-06T06:00:27.450Z,997.60
2018-05-06T06:01:27.761Z,997.60
2018-05-06T06:02:27.887Z,997.61
2018-05-06T06:03:28.025Z,997.62
2018-05-06T06:04:28.167Z,997.65
2018-05-06T06:05:28.368Z,997.64
2018-05-06T06:06:28.424Z,997.66
2018-05-06T06:07:28.627Z,997.62
2018-05-06T06:08:28.808Z,997.66
2018-05-06T06:09:28.978Z,997.67
2018-05-06T06:10:29.147Z,997.59
2018-05-06T06:11:29.266Z,997.64
2018-05-06T06:13:30.295Z,997.61
2018-05-06T06:14:30.863Z,997.60
2018-05-06T06:15:31.755Z,997.58
2018-05-06T06:16:30.104Z,997.55
2018-05-06T06:17:30.302Z,997.63
2018-05-06T06:18:30.468Z,997.63
2018-05-06T06:19:30.641Z,997.64
2018-05-06T06:20:30.800Z,997.66
2018-05-06T06:21:30.942Z,997.60
2018-05-06T06:22:31.051Z,997.59
2018-05-06T06:23:31.258Z,997.57
2018-05-06T06:24:31.404Z,997.55
2018-05-06T06:25:31.554Z,997.57
2018-05-06T06:26:31.712Z,997.57
2018-05-06T06:27:31.933Z,997.57
2018-05-06T06:28:32.078Z,997.58
2018-05-06T06:29:32.247Z,997.58
2018-05-06T06:30:32.390Z,997.55
2018-05-06T06:31:32.581Z,997.55
2018-05-06T06:32:32.753Z,997.50
2018-05-06T06:33:32.905Z,997.49
2018-05-06T06:34:33.032Z,997.52
2018-05-06T06:35:33.129Z,997.48
2018-05-06T06:36:33.426Z,997.48
2018-05-06T06:37:33.599Z,997.44
2018-05-06T06:38:33.691Z,997.45
2018-05-06T06:39:33.888Z,997.44
2018-05-06T06:40:33.993Z,997.46
2018-05-06T06:41:34.396Z,997.47
2018-05-06T06:42:34.305Z,997.50
2018-05-06T06:43:34.493Z,997.50
2018-05-06T06:44:34.616Z,997.52
2018-05-06T06:45:34.738Z,997.49
2018-05-06T06:46:34.948Z,997.50
2018-05-06T06:47:35.164Z,997.53
2018-05-06T06:48:35.325Z,997.48
2018-05-06T06:49:35.657Z,997.51
2018-05-06T06:50:35.891Z,997.56
2018-05-06T06:51:36.128Z,997.50
2018-05-06T06:52:36.035Z,997.51
2018-05-06T06:53:36.232Z,997.49
2018-05-06T06:54:36.313Z,997.47
2018-05-06T06:57:18.042Z,997.47
2018-05-06T06:58:18.073Z,997.48
2018-05-06T06:59:18.287Z,997.49
2018-05-06T07:00:18.490Z,997.49
2018-05-06T07:01:18.603Z,997.47
2018-05-06T07:02:18.724Z,997.48
2018-05-06T07:03:18.894Z,997.50
2018-05-06T07:04:19.099Z,997.45
2018-05-06T07:05:19.252Z,997.51
2018-05-06T07:06:19.422Z,997.51
2018-05-06T07:07:19.506Z,997.50
2018-05-06T07:08:19.719Z,997.49
2018-05-06T07:09:19.906Z,997.49
2018-05-06T07:10:20.093Z,997.46
2018-05-06T07:11:20.214Z,997.50
2018-05-06T07:12:20.325Z,997.48
2018-05-06T07:13:20.580Z,997.49
2018-05-06T07:14:20.756Z,997.51
2018-05-06T07:15:20.858Z,997.48
2018-05-06T07:16:21.011Z,997.49
2018-05-06T07:17:21.267Z,997.48
2018-05-06T07:18:21.398Z,997.49
2018-05-06T07:19:21.577Z,997.47
2018-05-06T07:20:21.740Z,997.44
2018-05-06T07:21:21.860Z,997.46
2018-05-06T07:22:22.017Z,997.49
2018-05-06T07:23:22.321Z,997.52
2018-05-06T07:24:22.367Z,997.54
2018-05-06T07:25:22.565Z,997.54
2018-05-06T07:26:22.753Z,997.58
2018-05-06T07:27:22.911Z,997.55
2018-05-06T07:28:23.127Z,997.57
2018-05-06T07:29:23.256Z,997.56
2018-05-06T07:30:23.411Z,997.57
2018-05-06T07:31:23.543Z,997.54
2018-05-06T07:32:23.709Z,997.56
2018-05-06T07:33:23.837Z,997.60
2018-05-06T07:34:23.986Z,997.58
2018-05-06T07:35:24.184Z,997.58
2018-05-06T07:36:24.382Z,997.53
2018-05-06T07:37:24.543Z,997.53
2018-05-06T07:38:24.753Z,997.60
2018-05-06T07:39:24.895Z,997.59
2018-05-06T07:40:25.065Z,997.52
2018-05-06T07:41:25.200Z,997.52
2018-05-06T07:42:25.388Z,997.54
2018-05-06T07:43:25.496Z,997.55
2018-05-06T07:44:25.657Z,997.57
2018-05-06T07:45:25.845Z,997.57
2018-05-06T07:46:26.004Z,997.59
2018-05-06T07:47:26.212Z,997.57
2018-05-06T07:48:26.415Z,997.58
2018-05-06T07:49:26.619Z,997.60
2018-05-06T07:50:26.751Z,997.62
2018-05-06T07:51:26.923Z,997.61
2018-05-06T07:52:27.038Z,997.65
2018-05-06T07:53:27.241Z,997.63
2018-05-06T07:54:27.337Z,997.62
2018-05-06T07:55:27.543Z,997.68
2018-05-06T07:56:27.714Z,997.69
2018-05-06T07:57:27.901Z,997.71
2018-05-06T07:58:28.077Z,997.72
2018-05-06T07:59:28.255Z,997.68
2018-05-06T08:00:28.354Z,997.67
2018-05-06T08:01:28.624Z,997.71
2018-05-06T08:02:29.434Z,997.72
2018-05-06T08:03:29.020Z,997.70
2018-05-06T08:04:29.180Z,997.69
2018-05-06T08:05:29.331Z,997.67
2018-05-06T08:06:29.443Z,997.62
2018-05-06T08:07:29.696Z,997.67
2018-05-06T08:08:29.850Z,997.73
2018-05-06T08:09:29.969Z,997.73
2018-05-06T08:10:30.135Z,997.67
2018-05-06T08:11:30.322Z,997.68
2018-05-06T08:12:30.521Z,997.72
2018-05-06T08:13:30.674Z,997.74
2018-05-06T08:14:30.786Z,997.72
2018-05-06T08:15:30.946Z,997.77
2018-05-06T08:16:31.299Z,997.77
2018-05-06T08:17:31.324Z,997.74
2018-05-06T08:18:31.531Z,997.70
2018-05-06T08:19:31.614Z,997.69
2018-05-06T08:20:31.836Z,997.77
2018-05-06T08:21:31.976Z,997.72
2018-05-06T08:22:32.117Z,997.75
2018-05-06T08:23:32.266Z,997.70
2018-05-06T08:24:32.538Z,997.76
2018-05-06T08:25:32.682Z,997.72
2018-05-06T08:26:32.769Z,997.69
2018-05-06T08:27:32.988Z,997.77
2018-05-06T08:28:33.180Z,997.74
2018-05-06T08:29:33.341Z,997.69
2018-05-06T08:30:33.563Z,997.72
2018-05-06T08:31:33.728Z,997.71
2018-05-06T08:32:33.883Z,997.80
2018-05-06T08:33:34.035Z,997.72
2018-05-06T08:34:34.236Z,997.70
2018-05-06T08:35:34.371Z,997.75
2018-05-06T08:36:34.551Z,997.77
2018-05-06T08:37:34.736Z,997.76
2018-05-06T08:38:34.876Z,997.74
2018-05-06T08:39:35.070Z,997.80
2018-05-06T08:40:35.202Z,997.72
2018-05-06T08:41:35.394Z,997.73
2018-05-06T08:42:35.632Z,997.67
2018-05-06T08:43:35.714Z,997.65
2018-05-06T08:44:35.823Z,997.72
2018-05-06T08:45:36.041Z,997.61
2018-05-06T08:46:36.237Z,997.65
2018-05-06T08:47:36.326Z,997.62
2018-05-06T08:48:36.571Z,997.64
2018-05-06T08:49:36.701Z,997.64
2018-05-06T08:50:36.880Z,997.65
2018-05-06T08:51:37.101Z,997.62
2018-05-06T08:52:37.210Z,997.64
2018-05-06T08:53:37.398Z,997.63
2018-05-06T08:54:37.495Z,997.67
2018-05-06T08:55:37.680Z,997.65
2018-05-06T08:56:38.034Z,997.68
2018-05-06T08:57:37.933Z,997.64
2018-05-06T08:58:38.150Z,997.65
2018-05-06T08:59:38.420Z,997.70
2018-05-06T09:00:38.552Z,997.63
2018-05-06T09:01:38.697Z,997.64
2018-05-06T09:02:38.828Z,997.65
2018-05-06T09:03:39.039Z,997.69
2018-05-06T09:04:39.152Z,997.63
2018-05-06T09:05:39.382Z,997.62
2018-05-06T09:06:39.496Z,997.61
2018-05-06T09:07:39.669Z,997.60
2018-05-06T09:08:39.859Z,997.66
2018-05-06T09:09:40.053Z,997.64
2018-05-06T09:10:40.295Z,997.64
2018-05-06T09:11:40.468Z,997.62
2018-05-06T09:12:40.600Z,997.60
2018-05-06T09:13:40.846Z,997.67
2018-05-06T09:14:41.028Z,997.64
2018-05-06T09:15:41.131Z,997.70
2018-05-06T09:16:41.322Z,997.64
2018-05-06T09:17:41.472Z,997.68
2018-05-06T09:18:41.596Z,997.69
2018-05-06T09:19:41.866Z,997.75
2018-05-06T09:20:41.980Z,997.78
2018-05-06T09:21:42.203Z,997.84
2018-05-06T09:22:42.368Z,997.83
2018-05-06T09:23:42.487Z,997.89
2018-05-06T09:24:42.702Z,997.95
2018-05-06T09:25:42.807Z,997.94
2018-05-06T09:26:43.095Z,997.93
2018-05-06T09:27:43.284Z,998.02
2018-05-06T09:28:43.212Z,998.03
2018-05-06T09:29:43.494Z,998.08
2018-05-06T09:30:43.670Z,998.12
2018-05-06T09:31:43.829Z,998.18
2018-05-06T09:32:44.000Z,998.07
2018-05-06T09:33:44.370Z,998.12
2018-05-06T09:34:45.903Z,998.11
2018-05-06T09:35:45.281Z,998.19
2018-05-06T09:36:44.917Z,998.21
2018-05-06T09:37:45.409Z,998.19
2018-05-06T09:38:45.320Z,998.30
2018-05-06T09:39:45.584Z,998.33
2018-05-06T09:40:45.822Z,998.34
2018-05-06T09:41:47.655Z,998.34
2018-05-06T09:42:48.285Z,998.40
2018-05-06T09:43:47.061Z,998.47
2018-05-06T09:44:46.399Z,998.40
2018-05-06T09:45:46.551Z,998.48
2018-05-06T09:46:46.744Z,998.53
2018-05-06T09:47:47.206Z,998.49
2018-05-06T09:48:47.163Z,998.37
2018-05-06T09:49:47.212Z,998.28
2018-05-06T09:50:47.435Z,998.26
2018-05-06T09:51:47.577Z,998.19
2018-05-06T09:52:47.788Z,998.20
2018-05-06T09:53:48.000Z,998.12
2018-05-06T09:54:49.054Z,998.07
2018-05-06T09:55:49.516Z,998.05
2018-05-06T09:56:50.775Z,998.04
2018-05-06T09:57:51.564Z,997.99
2018-05-06T09:59:05.507Z,997.90
2018-05-06T10:20:27.764Z,998.05
2018-05-06T10:21:27.222Z,998.08
2018-05-06T10:22:30.003Z,998.05
2018-05-06T10:23:32.070Z,998.05
2018-05-06T10:24:31.377Z,998.11
2018-05-06T10:25:30.687Z,998.09
2018-05-06T10:26:29.393Z,998.05
2018-05-06T10:27:27.723Z,998.08
2018-05-06T10:28:25.862Z,998.11
2018-05-06T10:29:25.806Z,998.10
2018-05-06T10:30:26.082Z,998.13
2018-05-06T10:31:26.106Z,998.23
2018-05-06T10:32:26.199Z,998.22
2018-05-06T10:33:26.513Z,998.51
2018-05-06T10:34:26.661Z,999.15
2018-05-06T10:35:27.024Z,999.58
2018-05-06T10:36:26.994Z,999.80
2018-05-06T10:37:27.299Z,999.89
2018-05-06T10:38:27.416Z,999.38
2018-05-06T10:39:27.591Z,999.67
2018-05-06T10:40:27.684Z,1000.01
2018-05-06T10:41:27.948Z,999.91
2018-05-06T10:42:28.142Z,999.92
2018-05-06T10:43:28.879Z,999.87
2018-05-06T10:44:28.678Z,999.75
2018-05-06T10:45:28.766Z,999.60
2018-05-06T10:46:28.796Z,999.52
2018-05-06T10:47:29.004Z,999.29
2018-05-06T10:48:29.193Z,999.08
2018-05-06T10:49:29.384Z,998.92
2018-05-06T10:50:29.664Z,998.85
2018-05-06T10:51:29.921Z,998.76
2018-05-06T10:52:30.512Z,998.70
2018-05-06T10:53:30.296Z,998.66
2018-05-06T10:54:30.318Z,998.71
2018-05-06T10:55:30.547Z,998.56
2018-05-06T10:56:30.693Z,998.52
2018-05-06T10:57:31.249Z,998.47
2018-05-06T10:58:31.469Z,998.39
2018-05-06T10:59:31.417Z,998.36
2018-05-06T11:00:31.425Z,998.31
2018-05-06T11:01:32.108Z,998.34
2018-05-06T11:02:31.835Z,998.40
2018-05-06T11:03:32.101Z,998.42
2018-05-06T11:04:32.225Z,998.37
2018-05-06T11:05:32.334Z,998.37
2018-05-06T11:06:32.454Z,998.33
2018-05-06T11:07:32.612Z,998.38
2018-05-06T11:08:32.818Z,998.32
2018-05-06T11:09:32.982Z,998.26
2018-05-06T11:10:33.246Z,998.21
2018-05-06T11:11:35.944Z,998.15
2018-05-06T11:12:34.853Z,998.13
2018-05-06T11:13:35.146Z,998.13
2018-05-06T11:14:34.266Z,998.16
2018-05-06T11:15:35.116Z,998.11
2018-05-06T11:16:34.475Z,998.05
2018-05-06T11:17:34.530Z,998.00
2018-05-06T11:18:35.256Z,997.94
2018-05-06T11:19:35.239Z,998.01
2018-05-06T11:20:35.287Z,998.11
2018-05-06T11:21:36.034Z,998.12
2018-05-06T11:22:37.886Z,998.15
2018-05-06T11:23:37.504Z,998.16
2018-05-06T11:42:11.942Z,998.09
2018-05-06T11:46:02.160Z,998.00
2018-05-06T11:49:19.860Z,997.98
2018-05-06T11:50:04.921Z,997.97
2018-05-06T11:50:59.216Z,998.00
2018-05-06T11:51:56.775Z,997.99
2018-05-06T11:52:57.645Z,998.04
2018-05-06T11:53:57.054Z,997.96
2018-05-06T11:54:58.439Z,997.93
2018-05-06T11:57:25.652Z,997.98
2018-05-06T11:58:02.731Z,997.95
2018-05-06T11:59:30.667Z,997.98
2018-05-06T12:00:06.120Z,997.96
2018-05-06T12:01:03.145Z,997.99
2018-05-06T12:02:11.726Z,998.01
2018-05-06T12:11:19.519Z,997.93
2018-05-06T12:12:20.216Z,997.97
2018-05-06T12:13:22.021Z,997.96
2018-05-06T12:14:20.619Z,997.94
2018-05-06T12:15:18.383Z,997.87
2018-05-06T12:16:18.601Z,997.96
2018-05-06T12:17:18.684Z,997.92
2018-05-06T12:18:18.897Z,997.95
2018-05-06T12:19:19.049Z,997.93
2018-05-06T12:20:19.219Z,997.69
2018-05-06T12:21:19.436Z,997.52
2018-05-06T12:22:19.702Z,997.42
2018-05-06T12:23:19.699Z,997.26
2018-05-06T12:24:19.971Z,997.14
2018-05-06T12:25:20.097Z,997.07
2018-05-06T12:26:20.347Z,997.05
2018-05-06T12:27:20.496Z,997.15
2018-05-06T12:28:20.702Z,997.07
2018-05-06T12:29:20.787Z,997.09
2018-05-06T12:30:20.982Z,997.04
2018-05-06T12:31:21.179Z,997.04
2018-05-06T12:32:21.319Z,997.05
2018-05-06T12:33:21.547Z,997.02
2018-05-06T12:34:21.692Z,997.00
2018-05-06T12:35:21.877Z,997.08
2018-05-06T12:36:21.982Z,997.06
2018-05-06T12:37:22.243Z,997.09
2018-05-06T12:38:22.382Z,996.99
2018-05-06T12:39:22.544Z,997.05
2018-05-06T12:40:22.703Z,997.02
2018-05-06T12:41:22.889Z,997.06
2018-05-06T12:42:23.077Z,997.12
2018-05-06T12:43:23.235Z,997.05
2018-05-06T12:44:23.469Z,997.02
2018-05-06T12:45:23.627Z,997.02
2018-05-06T12:46:23.759Z,997.00
2018-05-06T12:47:23.962Z,996.98
2018-05-06T12:48:24.078Z,996.90
2018-05-06T12:49:24.407Z,996.95
2018-05-06T12:50:24.464Z,996.94
2018-05-06T12:51:24.654Z,996.93
2018-05-06T12:52:24.829Z,996.94
2018-05-06T12:53:24.977Z,996.86
2018-05-06T12:54:25.129Z,996.90
2018-05-06T12:55:25.347Z,996.82
2018-05-06T12:56:25.545Z,996.81
2018-05-06T12:57:25.669Z,996.79
2018-05-06T12:58:25.828Z,996.78
2018-05-06T12:59:26.101Z,996.79
2018-05-06T13:00:26.236Z,996.80
2018-05-06T13:01:26.466Z,996.84
2018-05-06T13:02:26.592Z,996.77
2018-05-06T13:03:26.735Z,996.72
2018-05-06T13:04:26.906Z,996.77
2018-05-06T13:05:27.199Z,996.74
2018-05-06T13:06:27.366Z,996.73
2018-05-06T13:07:27.530Z,996.72
2018-05-06T13:08:27.752Z,996.72
2018-05-06T13:09:27.887Z,996.67
2018-05-06T13:10:28.727Z,996.68
2018-05-06T13:11:28.790Z,996.71
2018-05-06T13:12:28.492Z,996.66
2018-05-06T13:13:28.844Z,996.66
2018-05-06T13:14:28.778Z,996.67
2018-05-06T13:15:28.923Z,996.69
2018-05-06T13:16:29.161Z,996.60
2018-05-06T13:17:29.313Z,996.65
2018-05-06T13:18:29.474Z,996.64
2018-05-06T13:19:29.654Z,996.68
2018-05-06T13:20:29.831Z,996.61
2018-05-06T13:21:30.007Z,996.60
2018-05-06T13:22:30.222Z,996.53
2018-05-06T13:23:30.391Z,996.52
2018-05-06T13:24:30.602Z,996.58
2018-05-06T13:25:30.794Z,996.50
2018-05-06T13:26:30.948Z,996.46
2018-05-06T13:27:31.072Z,996.54
2018-05-06T13:28:31.245Z,996.53
2018-05-06T13:29:31.520Z,996.44
2018-05-06T13:30:31.616Z,996.47
2018-05-06T13:31:31.870Z,996.42
2018-05-06T13:32:31.987Z,996.46
2018-05-06T13:33:32.125Z,996.43
2018-05-06T13:34:32.374Z,996.50
2018-05-06T13:35:32.523Z,996.47
2018-05-06T13:36:32.722Z,996.42
2018-05-06T13:37:32.847Z,996.43
2018-05-06T13:38:33.113Z,996.45
2018-05-06T13:39:33.276Z,996.37
2018-05-06T13:40:33.421Z,996.37
2018-05-06T13:41:33.604Z,996.41
2018-05-06T13:42:33.889Z,996.36
2018-05-06T13:43:33.927Z,996.36
2018-05-06T13:44:34.128Z,996.41
2018-05-06T13:45:34.327Z,996.37
2018-05-06T13:46:34.447Z,996.39
2018-05-06T13:47:34.667Z,996.39
2018-05-06T13:48:34.859Z,996.37
2018-05-06T13:49:34.976Z,996.34
2018-05-06T13:50:35.226Z,996.32
2018-05-06T13:51:35.389Z,996.31
2018-05-06T13:52:35.510Z,996.29
2018-05-06T13:53:35.783Z,996.28
2018-05-06T13:54:35.960Z,996.26
2018-05-06T13:55:36.138Z,996.28
2018-05-06T13:56:36.264Z,996.17
2018-05-06T13:57:36.487Z,996.38
2018-05-06T13:58:36.581Z,996.28
2018-05-06T13:59:36.768Z,996.21
2018-05-06T14:00:37.021Z,996.25
2018-05-06T14:01:37.145Z,996.27
2018-05-06T14:02:37.328Z,996.23
2018-05-06T14:03:37.534Z,996.21
2018-05-06T14:04:37.692Z,996.22
2018-05-06T14:05:37.877Z,996.16
2018-05-06T14:06:38.113Z,996.23
2018-05-06T14:07:38.227Z,996.12
2018-05-06T14:08:38.413Z,996.14
2018-05-06T14:09:38.526Z,996.16
2018-05-06T14:10:38.793Z,996.11
2018-05-06T14:11:38.954Z,996.18
2018-05-06T14:12:39.145Z,996.09
2018-05-06T14:13:39.338Z,996.09
2018-05-06T14:14:39.577Z,996.09
2018-05-06T14:15:39.712Z,996.10
2018-05-06T14:16:39.932Z,996.07
2018-05-06T14:17:40.034Z,996.05
2018-05-06T14:18:40.459Z,996.00
2018-05-06T14:19:40.415Z,995.99
2018-05-06T14:20:40.679Z,996.10
2018-05-06T14:21:40.984Z,996.00
2018-05-06T14:22:41.386Z,996.02
2018-05-06T14:23:41.206Z,996.04
2018-05-06T14:24:41.487Z,996.00
2018-05-06T14:25:42.344Z,995.99
2018-05-06T14:26:41.830Z,996.02
2018-05-06T14:27:42.288Z,996.00
2018-05-06T14:28:42.975Z,995.97
2018-05-06T14:29:43.699Z,996.03
2018-05-06T14:30:43.269Z,996.04
2018-05-06T14:34:37.136Z,995.98
2018-05-06T14:37:13.024Z,995.98
2018-05-06T14:38:13.341Z,996.07
2018-05-06T14:39:11.436Z,995.93
2018-05-06T14:40:11.664Z,995.89
2018-05-06T14:41:11.805Z,995.95
2018-05-06T14:42:11.903Z,995.91
2018-05-06T14:43:12.160Z,995.90
2018-05-06T14:44:12.284Z,995.90
2018-05-06T14:45:12.472Z,995.84
2018-05-06T14:46:12.620Z,995.88
2018-05-06T14:47:12.857Z,995.82
2018-05-06T14:48:12.976Z,995.84
2018-05-06T14:49:13.144Z,995.85
2018-05-06T14:50:13.310Z,995.83
2018-05-06T14:51:13.481Z,995.81
2018-05-06T14:52:13.662Z,995.79
2018-05-06T14:53:14.731Z,995.77
2018-05-06T14:54:14.157Z,995.78
2018-05-06T14:55:14.256Z,995.75
2018-05-06T14:56:15.232Z,995.75
2018-05-06T14:57:14.751Z,995.77
2018-05-06T14:58:14.971Z,995.77
2018-05-06T14:59:15.733Z,995.77
2018-05-06T15:00:15.395Z,995.84
2018-05-06T15:01:15.466Z,995.82
2018-05-06T15:02:15.658Z,995.81
2018-05-06T15:03:15.827Z,995.81
2018-05-06T15:04:16.016Z,995.83
2018-05-06T15:05:16.254Z,995.80
2018-05-06T15:06:16.565Z,995.78
2018-05-06T15:07:16.614Z,995.80
2018-05-06T15:08:16.748Z,995.74
2018-05-06T15:09:17.733Z,995.80
2018-05-06T15:10:17.220Z,995.73
2018-05-06T15:11:17.379Z,995.80
2018-05-06T15:12:17.491Z,995.68
2018-05-06T15:13:17.681Z,995.66
2018-05-06T15:14:17.921Z,995.77
2018-05-06T15:15:18.064Z,995.71
2018-05-06T15:16:18.256Z,995.75
2018-05-06T15:17:18.353Z,995.66
2018-05-06T15:18:18.582Z,995.70
2018-05-06T15:19:18.761Z,995.76
2018-05-06T15:20:18.951Z,995.74
2018-05-06T15:21:19.182Z,995.78
2018-05-06T15:22:19.331Z,995.71
2018-05-06T15:23:19.471Z,995.68
2018-05-06T15:24:19.676Z,995.66
2018-05-06T15:25:19.800Z,995.73
2018-05-06T15:26:20.059Z,995.67
2018-05-06T15:27:20.191Z,995.70
2018-05-06T15:28:20.367Z,995.70
2018-05-06T15:29:20.580Z,995.68
2018-05-06T15:30:20.720Z,995.76
2018-05-06T15:31:20.845Z,995.70
2018-05-06T15:32:21.021Z,995.64
2018-05-06T15:33:21.265Z,995.69
2018-05-06T15:34:21.536Z,995.64
2018-05-06T15:35:21.648Z,995.66
2018-05-06T15:36:21.816Z,995.68
2018-05-06T15:37:22.009Z,995.72
2018-05-06T15:38:22.105Z,995.64
2018-05-06T15:39:22.315Z,995.64
2018-05-06T15:40:22.490Z,995.58
2018-05-06T15:41:22.666Z,995.65
2018-05-06T15:42:22.893Z,995.65
2018-05-06T15:43:23.028Z,995.57
2018-05-06T15:44:23.187Z,995.63
2018-05-06T15:45:23.343Z,995.62
2018-05-06T15:46:23.573Z,995.62
2018-05-06T15:47:23.980Z,995.59
2018-05-06T15:48:24.052Z,995.59
2018-05-06T15:49:24.199Z,995.60
2018-05-06T15:50:24.360Z,995.61
2018-05-06T15:51:24.549Z,995.51
2018-05-06T15:52:24.736Z,995.58
2018-05-06T15:53:24.852Z,995.58
2018-05-06T15:54:25.101Z,995.54
2018-05-06T15:55:25.276Z,995.55
2018-05-06T15:56:25.444Z,995.54
2018-05-06T15:57:25.571Z,995.53
2018-05-06T15:58:25.813Z,995.51
2018-05-06T15:59:25.964Z,995.51
2018-05-06T16:00:26.113Z,995.54
2018-05-06T16:01:26.476Z,995.58
2018-05-06T16:02:26.539Z,995.55
2018-05-06T16:03:26.715Z,995.52
2018-05-06T16:04:26.847Z,995.52
2018-05-06T16:05:27.042Z,995.52
2018-05-06T16:06:27.291Z,995.53
2018-05-06T16:07:27.461Z,995.50
2018-05-06T16:08:27.642Z,995.49
2018-05-06T16:09:27.804Z,995.40
2018-05-06T16:10:28.054Z,995.36
2018-05-06T16:11:28.153Z,995.39
2018-05-06T16:12:28.435Z,995.37
2018-05-06T16:13:29.243Z,995.40
2018-05-06T16:14:28.603Z,995.40
2018-05-06T16:15:28.805Z,995.46
2018-05-06T16:16:28.934Z,995.43
2018-05-06T16:17:29.163Z,995.42
2018-05-06T16:18:29.362Z,995.34
2018-05-06T16:19:29.521Z,995.32
2018-05-06T16:20:29.749Z,995.36
2018-05-06T16:21:29.884Z,995.24
2018-05-06T16:22:30.079Z,995.15
2018-05-06T16:23:30.194Z,995.17
2018-05-06T16:24:30.394Z,995.22
2018-05-06T16:25:30.552Z,995.18
2018-05-06T16:26:30.783Z,995.22
2018-05-06T16:27:30.836Z,995.25
2018-05-06T16:28:31.053Z,995.25
2018-05-06T16:29:31.251Z,995.20
2018-05-06T16:30:31.354Z,995.16